Time;durP1;ratioP1;P1;durP2;ratioP2;P2;SDS_P1;SDS_P2;PMS_P1;PMS_P2;Temp;Humidity;BMP_temperature;BMP_pressure;BME280_temperature;BME280_humidity;BME280_pressure;Samples;Min_cycle;Max_cycle;Signal;HPM_P1;HPM_P2
2021/05/26 05:00:37;;;;;;;26.88;24.55;;;;;;;16.51;92.71;95040.53;6157364;22;20025;-79
2021/05/26 05:03:03;;;;;;;24.15;22.15;;;;;;;16.57;92.29;95054.59;6187966;23;20040;-81
2021/05/26 05:05:31;;;;;;;25.23;22.98;;;;;;;16.55;93.25;95062.69;6212514;23;20483;-80
2021/05/26 05:07:57;;;;;;;24.08;21.85;;;;;;;16.64;93.18;95066.69;6188410;23;20011;-79
2021/05/26 05:10:22;;;;;;;23.15;21.23;;;;;;;16.59;92.24;95060.47;6188595;23;20339;-80
2021/05/26 05:12:47;;;;;;;21.35;19.40;;;;;;;16.59;93.17;95061.25;6161774;23;20015;-80
2021/05/26 05:15:15;;;;;;;23.67;21.83;;;;;;;16.58;92.67;95064.88;6164648;23;20046;-80
2021/05/26 05:17:40;;;;;;;24.10;22.00;;;;;;;16.58;92.39;95077.16;6211782;23;20087;-83
2021/05/26 05:20:06;;;;;;;23.55;21.55;;;;;;;16.63;91.80;95072.13;6213195;23;20008;-82
2021/05/26 05:22:31;;;;;;;25.33;23.15;;;;;;;16.58;92.45;95064.06;6187570;23;20008;-82
2021/05/26 05:24:57;;;;;;;28.23;25.83;;;;;;;16.46;92.64;95074.34;6162505;23;20007;-78
2021/05/26 05:27:22;;;;;;;29.77;26.92;;;;;;;16.25;93.23;95083.19;6212650;23;20437;-77
2021/05/26 05:29:48;;;;;;;25.42;23.23;;;;;;;16.29;92.91;95081.78;6211906;23;20433;-76
2021/05/26 05:32:13;;;;;;;24.88;22.98;;;;;;;16.31;93.25;95079.75;6187933;23;20011;-79
2021/05/26 05:34:38;;;;;;;23.73;21.65;;;;;;;16.38;93.27;95082.38;6186464;23;20011;-80
2021/05/26 05:37:04;;;;;;;25.95;23.45;;;;;;;16.31;92.55;95079.75;6213046;23;20008;-78
2021/05/26 05:39:29;;;;;;;27.70;25.50;;;;;;;16.42;93.09;95082.78;6185523;23;20001;-77
2021/05/26 05:41:55;;;;;;;34.83;31.00;;;;;;;16.33;92.52;95080.38;6157389;23;20498;-74
2021/05/26 05:44:20;;;;;;;35.50;32.20;;;;;;;16.32;92.90;95081.38;6157758;23;20012;-77
2021/05/26 05:46:46;;;;;;;33.38;30.30;;;;;;;16.30;93.39;95080.78;6157118;23;20004;-76
2021/05/26 05:49:11;;;;;;;29.65;27.02;;;;;;;16.29;93.51;95087.00;6209740;23;20011;-78
2021/05/26 05:51:37;;;;;;;28.63;25.90;;;;;;;16.35;93.02;95083.59;6156697;23;20005;-76
2021/05/26 05:54:02;;;;;;;29.40;26.33;;;;;;;16.46;93.02;95078.75;6158041;23;20000;-76
2021/05/26 05:56:28;;;;;;;27.50;24.98;;;;;;;16.44;93.01;95080.78;6207819;23;20013;-76
2021/05/26 05:58:53;;;;;;;25.92;23.45;;;;;;;16.47;93.21;95080.38;6158463;23;20001;-77
2021/05/26 06:01:19;;;;;;;26.83;24.10;;;;;;;16.51;93.01;95089.41;6208064;23;20016;-83
2021/05/26 06:03:44;;;;;;;28.67;25.67;;;;;;;16.38;93.51;95079.75;6157927;23;20013;-78
2021/05/26 06:06:10;;;;;;;26.90;24.30;;;;;;;16.47;93.21;95083.75;6133054;23;20005;-77
2021/05/26 06:08:35;;;;;;;25.02;22.50;;;;;;;16.60;92.96;95078.53;6182040;23;20367;-76
2021/05/26 06:11:01;;;;;;;25.00;22.60;;;;;;;16.64;92.34;95084.97;6133679;23;20110;-79
2021/05/26 06:13:27;;;;;;;23.13;20.63;;;;;;;16.70;91.48;95085.97;6157244;23;20114;-79
2021/05/26 06:15:53;;;;;;;21.45;19.65;;;;;;;16.72;90.98;95084.78;6133566;23;20013;-82
2021/05/26 06:18:18;;;;;;;20.23;18.35;;;;;;;16.70;90.07;95085.97;6156677;23;20015;-79
2021/05/26 06:20:44;;;;;;;18.33;16.80;;;;;;;16.73;89.47;95085.56;6158246;23;20001;-81
2021/05/26 06:23:09;;;;;;;16.88;15.38;;;;;;;16.70;88.40;95085.97;6181893;23;20074;-83
2021/05/26 06:25:35;;;;;;;18.52;16.73;;;;;;;16.78;88.34;95088.38;6156700;23;20001;-77
2021/05/26 06:28:00;;;;;;;18.73;16.90;;;;;;;16.85;87.62;95084.75;6179731;23;20005;-76
2021/05/26 06:30:26;;;;;;;17.52;16.02;;;;;;;16.78;87.16;95081.34;6178412;23;20008;-79
2021/05/26 06:32:51;;;;;;;18.20;14.93;;;;;;;16.76;87.56;95093.03;6157768;23;20023;-75
2021/05/26 06:35:16;;;;;;;21.58;15.02;;;;;;;16.76;88.01;95087.78;6180741;23;20055;-75
2021/05/26 06:37:42;;;;;;;16.98;15.23;;;;;;;16.75;87.29;95083.56;6156408;23;20016;-82
2021/05/26 06:40:08;;;;;;;15.95;14.52;;;;;;;16.78;87.67;95089.19;6129075;23;20016;-80
2021/05/26 06:42:33;;;;;;;16.40;14.57;;;;;;;16.81;86.07;95087.97;6183179;23;20000;-82
2021/05/26 06:44:59;;;;;;;16.65;15.10;;;;;;;16.78;86.79;95089.19;6158099;23;20131;-79
2021/05/26 06:47:24;;;;;;;16.30;14.57;;;;;;;16.96;85.91;95085.09;6156845;23;20005;-75
2021/05/26 06:49:50;;;;;;;15.07;13.77;;;;;;;16.95;86.14;95086.13;6184139;23;20001;-79
2021/05/26 06:52:16;;;;;;;17.00;15.13;;;;;;;17.06;84.94;95081.03;6132855;23;20005;-81
2021/05/26 06:54:41;;;;;;;15.93;14.32;;;;;;;17.16;85.44;95088.44;6154198;23;20005;-81
2021/05/26 06:57:07;;;;;;;15.48;13.80;;;;;;;17.20;84.79;95087.84;6155544;23;20036;-74
2021/05/26 06:59:32;;;;;;;16.85;13.75;;;;;;;17.13;84.50;95094.09;6210173;23;20024;-76
2021/05/26 07:01:58;;;;;;;14.45;13.27;;;;;;;17.20;84.53;95087.03;6177355;23;20681;-77
2021/05/26 07:04:24;;;;;;;14.13;12.90;;;;;;;17.27;83.88;95093.81;6176889;23;20445;-84
2021/05/26 07:06:49;;;;;;;16.45;13.82;;;;;;;17.37;83.50;95088.94;6129291;23;20099;-79
2021/05/26 07:09:15;;;;;;;14.65;13.18;;;;;;;17.35;83.44;95083.13;6151798;23;20044;-76
2021/05/26 07:11:40;;;;;;;16.38;12.98;;;;;;;17.33;82.32;95086.97;6153980;23;20443;-77
2021/05/26 07:14:06;;;;;;;15.68;13.75;;;;;;;17.22;82.64;95079.75;6151520;23;20004;-76
2021/05/26 07:16:31;;;;;;;17.80;12.80;;;;;;;17.56;80.68;95083.88;6153154;23;20016;-79
2021/05/26 07:18:59;;;;;;;13.27;11.95;;;;;;;17.67;80.85;95073.50;6152281;23;20359;-83
2021/05/26 07:21:25;;;;;;;13.13;11.82;;;;;;;18.15;79.60;95075.59;6129118;23;20001;-83
2021/05/26 07:23:51;;;;;;;12.00;11.02;;;;;;;19.16;76.74;95066.31;6152929;23;20056;-80
2021/05/26 07:26:17;;;;;;;13.40;11.43;;;;;;;19.54;75.42;95060.81;6151337;23;20007;-77
2021/05/26 07:28:42;;;;;;;12.32;11.05;;;;;;;19.31;76.27;95063.31;6153380;23;20378;-77
2021/05/26 07:31:08;;;;;;;12.38;10.75;;;;;;;18.99;75.42;95067.13;6175377;23;20489;-75
2021/05/26 07:33:33;;;;;;;13.30;9.93;;;;;;;19.27;75.53;95060.31;6142665;23;20022;-78
2021/05/26 07:35:59;;;;;;;17.05;10.50;;;;;;;19.67;74.00;95058.00;6114557;23;20140;-87
2021/05/26 07:38:24;;;;;;;10.73;9.80;;;;;;;20.19;71.68;95058.22;6092312;23;20492;-78
2021/05/26 07:40:50;;;;;;;42.53;12.55;;;;;;;19.65;72.28;95059.25;6092536;23;20006;-75
2021/05/26 07:43:15;;;;;;;13.13;10.18;;;;;;;19.70;72.56;95059.38;6091839;23;20009;-78
2021/05/26 07:45:41;;;;;;;15.90;11.00;;;;;;;20.19;70.85;95064.28;6115881;23;20033;-77
2021/05/26 07:48:06;;;;;;;12.10;9.40;;;;;;;20.41;69.11;95057.47;6115104;23;20006;-80
2021/05/26 07:50:35;;;;;;;11.95;8.70;;;;;;;20.07;72.92;95070.56;6116096;23;20006;-77
2021/05/26 07:53:01;;;;;;;16.08;10.18;;;;;;;19.99;71.15;95069.84;6118791;23;20008;-77
2021/05/26 07:55:27;;;;;;;11.68;8.93;;;;;;;20.80;69.06;95063.06;6091290;23;20033;-77
2021/05/26 07:57:53;;;;;;;11.35;9.77;;;;;;;20.91;69.89;95067.50;6088884;23;20479;-76
2021/05/26 08:00:18;;;;;;;51.17;12.20;;;;;;;20.60;68.74;95059.97;6139856;23;20014;-78
2021/05/26 08:02:45;;;;;;;9.00;8.30;;;;;;;21.54;66.50;95064.84;6115852;23;20089;-80
2021/05/26 08:05:11;;;;;;;75.25;15.48;;;;;;;20.90;68.33;95055.38;6117025;23;20043;-76
2021/05/26 08:07:36;;;;;;;26.17;10.05;;;;;;;21.61;66.60;95056.78;6092071;23;20451;-76
2021/05/26 08:10:03;;;;;;;9.80;8.88;;;;;;;22.28;66.92;95047.94;6114604;23;20057;-75
2021/05/26 08:12:28;;;;;;;12.65;9.90;;;;;;;22.60;66.15;95048.91;6117872;23;20013;-75
2021/05/26 08:14:53;;;;;;;66.20;11.20;;;;;;;21.98;65.68;95047.44;6114306;23;20014;-77
2021/05/26 08:17:19;;;;;;;9.10;8.15;;;;;;;21.95;66.96;95045.28;6116860;23;20017;-76
2021/05/26 08:19:44;;;;;;;63.97;11.65;;;;;;;22.86;63.00;95042.16;6116988;23;20012;-80
2021/05/26 08:22:10;;;;;;;10.75;7.30;;;;;;;22.79;65.91;95040.78;6067167;23;20024;-80
2021/05/26 08:24:35;;;;;;;24.95;9.82;;;;;;;22.88;65.53;95032.19;6118965;23;20010;-82
2021/05/26 08:27:01;;;;;;;10.50;7.53;;;;;;;22.64;66.17;95032.59;6091560;23;20002;-78
2021/05/26 08:29:26;;;;;;;46.90;11.45;;;;;;;22.45;64.33;95026.78;6118136;23;20014;-79
2021/05/26 08:31:56;;;;;;;8.25;7.45;;;;;;;22.06;67.15;95028.56;6068221;23;20037;-82
2021/05/26 08:34:22;;;;;;;42.17;13.00;;;;;;;23.17;63.55;95021.41;6118637;23;20012;-79
2021/05/26 08:36:48;;;;;;;26.05;11.45;;;;;;;23.10;62.84;95024.25;6092208;23;20002;-77
2021/05/26 08:39:13;;;;;;;87.72;17.70;;;;;;;22.36;65.00;95029.03;6093479;23;20008;-79
2021/05/26 08:41:39;;;;;;;9.82;8.80;;;;;;;23.22;64.57;95029.41;6093554;23;20013;-79
2021/05/26 08:44:06;;;;;;;11.13;10.07;;;;;;;22.85;62.58;95024.75;6092833;23;20428;-81
2021/05/26 08:46:32;;;;;;;9.45;8.70;;;;;;;23.25;62.80;95027.06;6092877;23;20006;-80
2021/05/26 08:49:01;;;;;;;13.55;8.18;;;;;;;23.05;64.52;95024.97;6092494;23;20542;-80
2021/05/26 08:51:26;;;;;;;9.10;7.78;;;;;;;24.12;62.44;95032.19;6093640;23;20455;-80
2021/05/26 08:53:52;;;;;;;16.00;10.40;;;;;;;22.74;63.62;95033.56;6116597;23;20002;-79
2021/05/26 08:56:18;;;;;;;11.65;9.27;;;;;;;22.69;62.82;95041.44;6092990;23;20037;-82
2021/05/26 08:58:43;;;;;;;8.77;8.18;;;;;;;22.60;64.19;95037.59;6117427;23;20002;-75
2021/05/26 09:01:09;;;;;;;12.02;8.98;;;;;;;23.37;61.58;95029.59;6096822;23;20041;-81
2021/05/26 09:03:37;;;;;;;24.50;10.88;;;;;;;23.14;62.60;95017.44;6098261;23;20006;-81
2021/05/26 09:06:09;;;;;;;9.02;8.10;;;;;;;23.33;62.45;95017.91;6097387;23;20005;-80
2021/05/26 09:08:34;;;;;;;8.75;7.65;;;;;;;23.81;63.07;95025.03;6099092;23;20015;-76
2021/05/26 09:11:01;;;;;;;208.23;18.15;;;;;;;23.82;60.34;95018.69;6096126;23;20005;-81
2021/05/26 09:13:26;;;;;;;9.38;8.35;;;;;;;24.15;62.36;95021.09;6123420;23;20017;-75
2021/05/26 09:15:52;;;;;;;12.55;8.57;;;;;;;22.74;64.03;95023.00;6121526;23;20014;-78
2021/05/26 09:18:17;;;;;;;11.68;9.90;;;;;;;23.00;61.46;95009.06;6097660;23;20010;-82
2021/05/26 09:20:45;;;;;;;10.52;9.10;;;;;;;22.78;63.23;95004.81;6097830;23;20426;-82
2021/05/26 09:23:12;;;;;;;9.25;7.78;;;;;;;23.45;64.48;95008.00;6073164;23;20008;-80
2021/05/26 09:25:50;;;;;;;9.45;8.57;;;;;;;22.77;64.63;95008.50;6074906;23;20451;-81
2021/05/26 09:28:30;;;;;;;12.75;7.78;;;;;;;23.42;64.24;95006.66;6096768;23;20075;-79
2021/05/26 09:31:06;;;;;;;9.02;8.20;;;;;;;23.76;62.93;95001.94;6100114;23;20001;-80
2021/05/26 09:33:38;;;;;;;8.55;7.82;;;;;;;22.97;63.80;95004.28;6073916;23;20005;-80
2021/05/26 09:36:19;;;;;;;10.38;8.38;;;;;;;23.04;63.78;94989.03;6121077;23;20005;-78
2021/05/26 09:38:48;;;;;;;14.57;8.50;;;;;;;22.52;64.70;94990.44;6121316;23;20076;-76
2021/05/26 09:41:20;;;;;;;7.05;6.45;;;;;;;23.22;63.93;94979.97;6119077;23;20033;-78
2021/05/26 09:43:45;;;;;;;20.52;9.40;;;;;;;22.90;63.10;94992.28;6122519;23;20002;-76
2021/05/26 09:46:18;;;;;;;390.05;27.80;;;;;;;22.27;64.24;94988.25;6148010;23;20363;-77
2021/05/26 09:48:43;;;;;;;9.32;8.35;;;;;;;22.78;64.36;94968.66;6097499;23;20592;-77
2021/05/26 09:51:08;;;;;;;10.95;9.40;;;;;;;23.56;64.61;94972.69;6073962;23;20020;-78
2021/05/26 09:53:34;;;;;;;10.55;9.55;;;;;;;22.89;63.86;94966.94;6070842;23;20436;-78
2021/05/26 09:55:59;;;;;;;24.77;11.18;;;;;;;23.28;62.86;94972.91;6097480;23;19998;-79
2021/05/26 09:58:25;;;;;;;10.35;8.30;;;;;;;23.83;63.72;94970.00;6095565;23;20005;-75
2021/05/26 10:00:50;;;;;;;9.32;8.52;;;;;;;23.72;63.23;94965.69;6090557;23;20573;-77
2021/05/26 10:03:16;;;;;;;10.68;8.73;;;;;;;23.90;63.17;94954.72;6139887;23;20025;-77
2021/05/26 10:05:41;;;;;;;9.43;8.60;;;;;;;23.70;62.53;94954.53;6140897;23;20006;-79
2021/05/26 10:08:12;;;;;;;11.95;8.68;;;;;;;23.47;63.58;94951.16;6118109;23;20057;-79
2021/05/26 10:10:38;;;;;;;9.63;8.63;;;;;;;23.74;64.59;94950.34;6118428;23;20052;-75
2021/05/26 10:13:04;;;;;;;82.18;13.57;;;;;;;23.04;63.66;94949.41;6119858;23;20009;-78
2021/05/26 10:15:31;;;;;;;117.10;18.13;;;;;;;23.16;65.38;94949.25;6118700;23;20084;-79
2021/05/26 10:17:57;;;;;;;9.55;8.65;;;;;;;24.11;63.65;94943.22;6144177;23;20470;-80
2021/05/26 10:20:33;;;;;;;9.20;8.35;;;;;;;22.98;62.16;94936.38;6118715;23;20080;-79
2021/05/26 10:23:00;;;;;;;111.07;16.05;;;;;;;23.87;63.51;94932.19;6123166;23;20084;-79
2021/05/26 10:25:25;;;;;;;9.60;7.93;;;;;;;24.64;62.04;94929.78;6146408;23;20014;-80
2021/05/26 10:27:55;;;;;;;8.40;7.60;;;;;;;24.86;60.85;94926.97;6120722;23;20002;-79
2021/05/26 10:30:26;;;;;;;69.00;15.80;;;;;;;24.80;61.41;94929.84;6144247;23;20013;-80
2021/05/26 10:32:54;;;;;;;21.98;10.10;;;;;;;24.99;59.85;94923.84;6121349;23;20160;-80
2021/05/26 10:35:24;;;;;;;27.45;9.00;;;;;;;24.18;60.88;94916.56;6120772;23;20018;-78
2021/05/26 10:38:04;;;;;;;11.13;8.27;;;;;;;24.88;61.58;94910.81;6119938;23;20040;-78
2021/05/26 10:40:38;;;;;;;8.30;7.50;;;;;;;25.65;60.03;94910.72;6121882;23;20547;-78
2021/05/26 10:43:16;;;;;;;11.18;7.93;;;;;;;25.15;59.25;94911.41;6171579;23;20001;-77
2021/05/26 10:45:42;;;;;;;9.57;8.35;;;;;;;25.57;56.77;94901.41;6145535;23;20017;-76
2021/05/26 10:48:07;;;;;;;8.02;7.28;;;;;;;24.77;59.57;94895.91;6121897;23;20108;-77
2021/05/26 10:50:48;;;;;;;8.45;7.60;;;;;;;25.08;61.97;94897.59;6145025;23;20449;-78
2021/05/26 10:53:15;;;;;;;39.92;8.93;;;;;;;23.75;61.30;94899.03;6120983;23;20041;-78
2021/05/26 10:55:42;;;;;;;56.08;11.32;;;;;;;23.85;61.38;94897.28;6144365;23;20064;-79
2021/05/26 10:58:27;;;;;;;9.02;8.15;;;;;;;24.18;62.77;94898.03;6120770;23;20116;-79
2021/05/26 11:00:55;;;;;;;11.93;8.35;;;;;;;24.29;62.15;94892.53;6145030;23;20017;-76
2021/05/26 11:03:24;;;;;;;10.53;7.90;;;;;;;23.94;61.04;94893.09;6147797;23;20603;-78
2021/05/26 11:06:13;;;;;;;9.10;7.50;;;;;;;24.52;62.79;94884.16;6120745;23;20100;-77
2021/05/26 11:11:25;;;;;;;8.88;7.97;;;;;;;24.21;60.72;94879.75;6146975;23;20513;-78
2021/05/26 11:14:05;;;;;;;9.52;8.07;;;;;;;24.55;61.63;94875.69;6120636;23;20009;-76
2021/05/26 11:16:40;;;;;;;8.32;7.05;;;;;;;24.87;63.79;94869.47;6120371;23;20009;-79
2021/05/26 11:19:13;;;;;;;22.08;9.25;;;;;;;24.79;59.11;94860.13;6147778;23;20010;-77
2021/05/26 11:21:42;;;;;;;8.73;6.97;;;;;;;24.91;61.43;94866.03;6073756;23;20005;-78
2021/05/26 11:24:08;;;;;;;9.20;6.50;;;;;;;24.81;62.13;94854.59;6098270;23;20009;-78
2021/05/26 11:26:35;;;;;;;11.95;6.97;;;;;;;25.05;59.60;94855.72;6095606;23;20010;-77
2021/05/26 11:29:01;;;;;;;9.65;6.50;;;;;;;24.43;59.29;94848.63;6096804;23;20359;-78
2021/05/26 11:31:26;;;;;;;14.77;7.55;;;;;;;24.87;60.91;94853.56;6120895;23;20009;-77
2021/05/26 11:33:55;;;;;;;8.95;7.05;;;;;;;24.52;60.42;94849.72;6096600;23;20435;-77
2021/05/26 11:36:39;;;;;;;;;;;;;;;24.55;62.78;94851.84;6073318;23;20016;-77
2021/05/26 11:39:26;;;;;;;8.43;7.63;;;;;;;24.73;59.61;94831.22;6120008;23;20000;-78
2021/05/26 11:41:52;;;;;;;29.75;10.35;;;;;;;24.93;59.68;94836.59;6089123;23;20005;-79
2021/05/26 11:44:18;;;;;;;7.10;6.60;;;;;;;25.22;62.12;94832.41;6097005;23;20040;-78
2021/05/26 11:46:44;;;;;;;9.27;6.90;;;;;;;25.05;61.61;94831.84;6096828;23;20009;-78
2021/05/26 11:49:11;;;;;;;7.65;6.55;;;;;;;25.24;61.50;94824.97;6118827;23;20317;-75
2021/05/26 11:51:38;;;;;;;7.90;7.10;;;;;;;25.03;59.50;94826.03;6095871;23;20009;-76
2021/05/26 11:54:04;;;;;;;9.57;6.78;;;;;;;24.97;59.72;94821.78;6097394;23;20009;-76
2021/05/26 11:56:30;;;;;;;47.20;10.85;;;;;;;25.39;59.05;94814.38;6120371;23;20515;-77
2021/05/26 11:58:57;;;;;;;7.55;6.47;;;;;;;25.18;60.40;94816.22;6120436;23;20005;-76
2021/05/26 12:01:33;;;;;;;7.80;6.22;;;;;;;25.08;60.85;94805.59;6096332;23;20459;-76
2021/05/26 12:03:59;;;;;;;20.35;8.15;;;;;;;24.60;60.42;94804.19;6096624;23;20482;-76
2021/05/26 12:06:25;;;;;;;8.55;7.07;;;;;;;24.33;61.37;94800.13;6097086;23;20368;-76
2021/05/26 12:08:50;;;;;;;8.60;7.20;;;;;;;24.95;61.80;94807.97;6073072;23;20001;-77
2021/05/26 12:11:21;;;;;;;10.27;6.70;;;;;;;25.14;59.95;94804.53;6096139;23;20424;-78
2021/05/26 12:13:48;;;;;;;45.65;11.23;;;;;;;24.07;59.88;94809.78;6096615;23;20010;-79
2021/05/26 12:16:22;;;;;;;8.15;6.75;;;;;;;24.22;61.75;94812.53;6095795;23;20008;-77
2021/05/26 12:18:54;;;;;;;7.78;6.28;;;;;;;24.11;61.95;94810.88;6075172;23;20036;-76
2021/05/26 12:21:20;;;;;;;23.70;8.73;;;;;;;24.29;61.62;94809.63;6119477;23;20071;-76
2021/05/26 12:23:47;;;;;;;8.45;6.75;;;;;;;24.43;62.01;94797.53;6121228;23;20865;-77
2021/05/26 12:26:31;;;;;;;13.00;7.75;;;;;;;24.59;60.80;94799.94;6096508;23;20663;-77
2021/05/26 12:28:57;;;;;;;8.52;6.50;;;;;;;24.78;60.43;94787.00;6097347;23;20072;-79
2021/05/26 12:31:23;;;;;;;11.43;6.57;;;;;;;24.77;60.75;94785.41;6096840;23;20006;-79
2021/05/26 12:33:51;;;;;;;7.65;6.50;;;;;;;25.04;62.73;94782.56;6071994;23;20040;-79
2021/05/26 12:36:16;;;;;;;10.00;7.05;;;;;;;25.25;59.90;94776.19;6120414;23;20013;-78
2021/05/26 12:38:44;;;;;;;19.35;9.18;;;;;;;25.12;59.94;94771.41;6096758;23;20013;-79
2021/05/26 12:41:20;;;;;;;316.23;29.65;;;;;;;24.40;60.01;94772.31;6121635;23;20473;-81
2021/05/26 12:43:46;;;;;;;22.92;8.30;;;;;;;24.09;62.05;94767.97;6094263;23;20016;-80
2021/05/26 12:46:11;;;;;;;7.45;6.80;;;;;;;24.74;62.13;94766.59;6120540;23;20006;-80
2021/05/26 12:48:37;;;;;;;6.85;6.15;;;;;;;24.95;62.45;94762.91;6072605;23;20006;-79
2021/05/26 12:51:02;;;;;;;8.63;6.57;;;;;;;25.06;61.35;94769.81;6095970;23;20001;-78
2021/05/26 12:53:32;;;;;;;6.80;6.30;;;;;;;24.41;60.59;94755.38;6095716;23;20009;-80
2021/05/26 12:55:58;;;;;;;7.35;6.68;;;;;;;24.70;62.43;94770.81;6094386;23;20105;-79
2021/05/26 12:58:24;;;;;;;86.15;11.45;;;;;;;24.05;63.70;94770.31;6072948;23;20359;-79
2021/05/26 13:00:50;;;;;;;9.25;6.80;;;;;;;24.08;64.17;94766.38;6071912;23;20010;-78
2021/05/26 13:03:16;;;;;;;8.15;6.88;;;;;;;23.88;63.75;94766.28;6117594;23;20025;-78
2021/05/26 13:05:44;;;;;;;9.52;6.82;;;;;;;23.76;63.04;94763.06;6120386;23;20436;-78
2021/05/26 13:08:19;;;;;;;7.32;6.72;;;;;;;24.21;62.66;94760.63;6145003;23;20005;-78
2021/05/26 13:10:56;;;;;;;8.07;7.18;;;;;;;24.43;61.42;94745.34;6145413;23;20443;-77
2021/05/26 13:13:23;;;;;;;7.28;6.57;;;;;;;24.33;61.80;94747.97;6120652;23;20486;-78
2021/05/26 13:15:51;;;;;;;8.63;7.32;;;;;;;24.55;61.83;94750.41;6145030;23;20506;-78
2021/05/26 13:18:17;;;;;;;8.35;6.93;;;;;;;24.55;64.11;94745.91;6145502;23;20005;-78
2021/05/26 13:20:43;;;;;;;7.15;6.45;;;;;;;24.82;61.69;94742.25;6145364;23;20012;-78
2021/05/26 13:23:09;;;;;;;39.47;10.95;;;;;;;24.40;60.80;94745.84;6147459;23;20036;-77
2021/05/26 13:25:36;;;;;;;49.80;8.27;;;;;;;24.25;63.06;94745.81;6143787;23;20005;-75
2021/05/26 13:28:09;;;;;;;6.07;5.53;;;;;;;24.27;63.16;94742.91;6145092;23;20013;-77
2021/05/26 13:30:34;;;;;;;8.88;6.57;;;;;;;24.29;64.79;94743.44;6167938;23;20518;-79
2021/05/26 13:33:00;;;;;;;16.15;7.38;;;;;;;24.39;63.44;94731.03;6120985;23;20037;-79
2021/05/26 13:35:26;;;;;;;109.85;12.15;;;;;;;24.55;61.70;94731.84;6144187;23;20036;-75
2021/05/26 13:37:52;;;;;;;86.32;10.20;;;;;;;24.34;61.91;94727.59;6169003;23;20015;-78
2021/05/26 13:40:17;;;;;;;9.27;5.93;;;;;;;24.22;62.93;94724.34;6143657;23;20088;-79
2021/05/26 13:42:43;;;;;;;50.17;9.13;;;;;;;24.30;63.17;94722.00;6144926;23;20001;-79
2021/05/26 13:45:09;;;;;;;6.38;5.85;;;;;;;24.29;63.21;94720.41;6144552;23;20009;-81
2021/05/26 13:47:35;;;;;;;224.52;15.05;;;;;;;23.99;63.72;94725.56;6119297;23;20014;-80
2021/05/26 13:50:00;;;;;;;13.43;6.00;;;;;;;23.86;64.18;94721.56;6145124;23;20017;-79
2021/05/26 13:52:26;;;;;;;171.10;12.15;;;;;;;23.84;65.47;94723.69;6169865;23;19997;-77
2021/05/26 13:54:52;;;;;;;6.65;6.13;;;;;;;24.40;65.96;94718.59;6145730;23;20002;-81
2021/05/26 13:57:17;;;;;;;65.93;12.68;;;;;;;24.14;64.82;94723.03;6120593;23;20040;-80
2021/05/26 13:59:43;;;;;;;6.63;6.00;;;;;;;23.93;66.42;94721.31;6146649;23;20048;-81
2021/05/26 14:02:08;;;;;;;6.03;5.47;;;;;;;24.07;65.69;94717.16;6122917;23;20064;-79
2021/05/26 14:04:34;;;;;;;88.30;12.23;;;;;;;23.82;65.87;94720.50;6171758;23;20002;-79
2021/05/26 14:06:59;;;;;;;215.23;16.38;;;;;;;24.02;64.60;94715.25;6146786;23;20089;-78
2021/05/26 14:09:25;;;;;;;133.07;12.32;;;;;;;23.91;66.14;94715.50;6146404;23;20013;-78
2021/05/26 14:11:50;;;;;;;87.93;16.25;;;;;;;24.16;64.90;94720.91;6148011;23;20006;-77
2021/05/26 14:14:16;;;;;;;81.68;11.93;;;;;;;24.59;64.22;94724.97;6122710;23;20005;-82
2021/05/26 14:16:41;;;;;;;11.05;7.35;;;;;;;24.96;63.27;94730.06;6171091;23;20363;-83
2021/05/26 14:19:07;;;;;;;77.93;13.05;;;;;;;24.21;63.97;94733.38;6149198;23;20097;-76
2021/05/26 14:21:32;;;;;;;27.42;7.63;;;;;;;24.37;63.34;94743.72;6146202;23;20375;-77
2021/05/26 14:23:58;;;;;;;78.47;10.52;;;;;;;24.72;62.50;94729.75;6146486;23;20001;-82
2021/05/26 14:26:23;;;;;;;55.58;10.00;;;;;;;24.26;63.69;94730.72;6168628;23;20363;-81
2021/05/26 14:28:49;;;;;;;6.88;6.20;;;;;;;24.36;63.50;94726.25;6146581;23;20033;-76
2021/05/26 14:31:15;;;;;;;7.47;6.70;;;;;;;24.43;63.06;94710.91;6147081;23;20491;-79
2021/05/26 14:33:41;;;;;;;96.70;9.80;;;;;;;24.42;63.19;94708.53;6145753;23;20006;-77
2021/05/26 14:36:09;;;;;;;7.57;5.78;;;;;;;24.63;63.06;94710.91;6145134;23;20012;-75
2021/05/26 14:38:44;;;;;;;241.93;20.47;;;;;;;24.46;63.22;94707.75;6120777;23;20883;-76
2021/05/26 14:41:12;;;;;;;14.77;6.70;;;;;;;24.49;63.57;94698.47;6169028;23;20229;-79
2021/05/26 14:43:38;;;;;;;8.30;6.60;;;;;;;24.64;63.40;94712.53;6145875;23;20010;-78
2021/05/26 14:46:04;;;;;;;240.13;20.75;;;;;;;24.02;63.69;94698.59;6146469;23;20014;-79
2021/05/26 14:48:29;;;;;;;7.20;6.55;;;;;;;24.17;63.52;94700.53;6145703;23;20006;-78
2021/05/26 14:50:56;;;;;;;14.73;6.50;;;;;;;24.18;64.17;94688.88;6146475;23;20002;-80
2021/05/26 14:53:22;;;;;;;7.45;6.03;;;;;;;23.88;65.03;94693.00;6148195;23;20013;-81
2021/05/26 14:55:48;;;;;;;8.05;6.25;;;;;;;23.97;65.15;94685.34;6145551;23;20374;-83
2021/05/26 14:58:13;;;;;;;36.00;8.00;;;;;;;23.62;65.79;94683.38;6145860;23;20005;-82
2021/05/26 15:00:39;;;;;;;34.72;7.43;;;;;;;23.51;65.16;94671.13;6144802;23;20017;-76
2021/05/26 15:03:04;;;;;;;21.05;7.10;;;;;;;23.55;65.86;94665.09;6146410;23;20017;-76
2021/05/26 15:05:29;;;;;;;135.77;12.48;;;;;;;23.63;65.64;94673.59;6120889;23;20013;-80
2021/05/26 15:07:55;;;;;;;7.05;6.45;;;;;;;23.62;65.66;94670.16;6145454;23;20458;-79
2021/05/26 15:10:23;;;;;;;99.68;11.65;;;;;;;23.50;66.70;94664.28;6170459;23;20012;-81
2021/05/26 15:12:49;;;;;;;225.60;15.80;;;;;;;23.27;65.97;94659.38;6148259;23;20273;-80
2021/05/26 15:15:14;;;;;;;246.25;18.10;;;;;;;23.05;67.09;94654.22;6171164;23;20009;-78
2021/05/26 15:17:40;;;;;;;77.18;9.60;;;;;;;22.87;67.65;94659.91;6119650;23;20013;-79
2021/05/26 15:20:05;;;;;;;128.55;15.85;;;;;;;22.92;67.46;94663.41;6147010;23;20381;-78
2021/05/26 15:22:31;;;;;;;45.58;8.27;;;;;;;22.72;67.38;94657.97;6119782;23;20443;-82
2021/05/26 15:24:56;;;;;;;17.70;7.32;;;;;;;;;;6145464;23;20043;-80
2021/05/26 15:27:21;;;;;;;8.67;6.73;;;;;;;22.51;69.14;94650.88;6145992;23;20084;-79
2021/05/26 15:29:47;;;;;;;97.97;12.02;;;;;;;22.40;69.03;94643.94;6169606;23;20241;-79
2021/05/26 15:32:12;;;;;;;335.00;23.27;;;;;;;22.40;69.13;94651.88;6120919;23;20443;-80
2021/05/26 15:34:43;;;;;;;6.72;6.13;;;;;;;22.47;69.45;94655.09;6120531;23;20013;-80
2021/05/26 15:37:08;;;;;;;9.23;7.47;;;;;;;22.43;69.28;94646.88;6145107;23;20451;-79
2021/05/26 15:39:33;;;;;;;7.00;6.38;;;;;;;22.62;69.77;94649.13;6118265;23;20013;-82
2021/05/26 15:41:59;;;;;;;9.57;7.15;;;;;;;22.64;69.65;94647.81;6147926;23;20016;-81
2021/05/26 15:44:24;;;;;;;7.10;6.40;;;;;;;22.40;70.00;94644.75;6147985;23;20006;-78
2021/05/26 15:46:53;;;;;;;7.38;6.70;;;;;;;22.50;69.68;94649.31;6147446;23;20114;-81
2021/05/26 15:49:21;;;;;;;7.72;6.28;;;;;;;22.32;69.48;94653.09;6146366;23;20001;-78
2021/05/26 15:51:47;;;;;;;7.25;6.55;;;;;;;22.31;70.24;94654.16;6145519;23;20029;-80
2021/05/26 15:54:16;;;;;;;32.30;10.75;;;;;;;22.33;70.22;94651.25;6145026;23;20006;-77
2021/05/26 15:56:41;;;;;;;6.72;6.13;;;;;;;22.38;70.36;94652.09;6143775;23;20025;-80
2021/05/26 15:59:07;;;;;;;9.70;6.72;;;;;;;22.19;70.39;94645.59;6145564;23;20399;-77
2021/05/26 16:01:33;;;;;;;259.90;25.85;;;;;;;22.06;70.61;94648.63;6146423;23;20462;-80
2021/05/26 16:03:58;;;;;;;7.72;6.70;;;;;;;22.08;70.85;94654.47;6121758;23;20005;-78
2021/05/26 16:06:25;;;;;;;7.82;6.45;;;;;;;22.10;70.81;94654.22;6120948;23;20009;-81
2021/05/26 16:08:51;;;;;;;48.35;9.82;;;;;;;22.13;70.22;94659.78;6097804;23;20005;-80
2021/05/26 16:11:16;;;;;;;150.07;16.92;;;;;;;21.90;71.09;94663.50;6096956;23;20320;-80
2021/05/26 16:13:42;;;;;;;7.55;6.85;;;;;;;21.90;72.38;94660.88;6096439;23;20001;-80
2021/05/26 16:16:07;;;;;;;7.13;6.60;;;;;;;22.21;71.85;94655.91;6097083;23;20005;-78
2021/05/26 16:18:33;;;;;;;7.72;7.13;;;;;;;22.08;72.04;94657.09;6121015;23;20072;-80
2021/05/26 16:20:59;;;;;;;12.95;7.03;;;;;;;22.18;71.73;94651.13;6120050;23;20341;-78
2021/05/26 16:23:25;;;;;;;7.35;6.75;;;;;;;22.31;70.42;94642.81;6147451;23;20442;-80
2021/05/26 16:25:50;;;;;;;10.40;6.45;;;;;;;22.53;69.71;94639.03;6097345;23;20006;-80